Time;durP1;ratioP1;P1;durP2;ratioP2;P2;SDS_P1;SDS_P2;PMS_P1;PMS_P2;Temp;Humidity;BMP_temperature;BMP_pressure;BME280_temperature;BME280_humidity;BME280_pressure;Samples;Min_cycle;Max_cycle;Signal;HPM_P1;HPM_P2
2021/04/09 00:02:04;;;;;;;3.03;2.33;;;;;;;8.34;48.36;102239.03;143752;623;46010;-82
2021/04/09 00:04:31;;;;;;;2.75;2.33;;;;;;;8.41;47.89;102243.44;143751;595;46010;-85
2021/04/09 00:06:58;;;;;;;4.32;3.20;;;;;;;8.45;46.90;102239.13;143748;568;47010;-83
2021/04/09 00:09:26;;;;;;;5.95;3.70;;;;;;;8.48;47.40;102243.53;143748;617;46018;-82
2021/04/09 00:11:54;;;;;;;7.72;5.12;;;;;;;8.50;47.68;102242.63;143752;567;48010;-83
2021/04/09 00:14:22;;;;;;;5.97;4.10;;;;;;;8.53;47.48;102249.63;143744;585;48022;-83
2021/04/09 00:16:49;;;;;;;7.35;4.20;;;;;;;8.57;47.38;102240.91;143750;564;46010;-84
2021/04/09 00:19:19;;;;;;;6.12;3.60;;;;;;;8.62;46.72;102239.22;143752;563;46012;-82
2021/04/09 00:21:46;;;;;;;5.50;4.05;;;;;;;8.63;45.19;102239.22;143752;572;46018;-84
2021/04/09 00:24:14;;;;;;;4.97;3.10;;;;;;;8.67;45.48;102236.63;143751;586;46021;-83
2021/04/09 00:26:42;;;;;;;4.07;2.78;;;;;;;8.68;44.34;102227.88;143749;628;46018;-83
2021/04/09 00:29:09;;;;;;;3.72;2.85;;;;;;;8.72;44.21;102233.16;143752;573;46010;-84
2021/04/09 00:31:37;;;;;;;5.53;3.00;;;;;;;8.74;42.15;102235.78;143752;625;48010;-85
2021/04/09 00:34:05;;;;;;;5.22;3.45;;;;;;;8.75;42.27;102220.06;143746;579;48020;-85
2021/04/09 00:36:36;;;;;;;5.70;3.10;;;;;;;8.77;41.27;102228.78;143750;724;46010;-85
2021/04/09 00:39:07;;;;;;;4.10;3.00;;;;;;;8.77;40.44;102223.53;143740;565;47010;-83
2021/04/09 00:41:38;;;;;;;6.50;3.55;;;;;;;8.77;40.21;102220.06;143750;591;48010;-84
2021/04/09 00:44:09;;;;;;;6.97;3.67;;;;;;;8.75;38.49;102227.06;143748;569;48020;-83
2021/04/09 00:46:37;;;;;;;4.37;2.55;;;;;;;8.74;38.50;102227.91;143751;564;46010;-82
2021/04/09 00:49:04;;;;;;;4.43;2.90;;;;;;;8.73;37.80;102221.78;143749;588;46010;-84
2021/04/09 00:51:33;;;;;;;4.35;2.62;;;;;;;8.70;37.89;102227.03;143752;593;46017;-83
2021/04/09 00:54:01;;;;;;;6.37;2.75;;;;;;;8.69;36.39;102233.13;143742;584;49021;-83
2021/04/09 00:56:30;;;;;;;6.12;3.10;;;;;;;8.67;35.98;102226.16;143750;631;47010;-81
2021/04/09 00:58:57;;;;;;;4.75;2.60;;;;;;;8.66;35.84;102225.25;143749;613;46010;-82
2021/04/09 01:01:25;;;;;;;7.18;2.58;;;;;;;8.66;36.00;102229.63;143751;705;48010;-83
2021/04/09 01:03:54;;;;;;;3.45;2.17;;;;;;;8.64;35.50;102227.88;143742;564;48020;-84
2021/04/09 01:06:22;;;;;;;5.30;2.60;;;;;;;8.62;35.45;102227.00;143752;570;46009;-85
2021/04/09 01:08:50;;;;;;;3.97;2.30;;;;;;;8.61;35.96;102224.34;143747;744;46018;-86
2021/04/09 01:11:17;;;;;;;3.97;2.37;;;;;;;8.56;35.50;102224.34;143751;606;48010;-84
2021/04/09 01:13:45;;;;;;;8.80;2.47;;;;;;;8.53;35.07;102218.22;143747;583;47020;-80
2021/04/09 01:16:27;;;;;;;5.15;2.10;;;;;;;8.52;36.23;102212.13;143749;581;46018;-83
2021/04/09 01:19:45;;;;;;;7.57;3.80;;;;;;;8.52;36.80;102222.59;143748;661;46012;-83
2021/04/09 01:22:13;;;;;;;11.02;5.03;;;;;;;8.49;35.57;102214.72;143751;584;47008;-85
2021/04/09 01:25:32;;;;;;;8.07;3.37;;;;;;;8.52;37.40;102224.34;143749;682;48020;-85
2021/04/09 01:28:38;;;;;;;6.68;2.70;;;;;;;8.51;37.95;102223.44;143752;599;46008;-82
2021/04/09 01:31:42;;;;;;;5.07;2.65;;;;;;;8.51;37.85;102226.06;143743;570;47010;-83
2021/04/09 01:34:12;;;;;;;5.97;2.47;;;;;;;8.49;36.31;102222.56;143753;586;46018;-83
2021/04/09 01:36:48;;;;;;;4.78;2.78;;;;;;;8.49;36.48;102233.06;143752;722;46011;-81
2021/04/09 01:39:42;;;;;;;7.90;3.15;;;;;;;8.50;37.13;102231.28;143748;655;46018;-84
2021/04/09 01:42:12;;;;;;;6.40;3.25;;;;;;;8.48;35.95;102231.28;143748;646;46018;-84
2021/04/09 01:44:43;;;;;;;6.72;2.85;;;;;;;8.46;35.77;102233.91;143751;605;48010;-85
2021/04/09 01:47:12;;;;;;;5.25;3.00;;;;;;;8.45;35.87;102237.37;143749;608;46018;-87
2021/04/09 01:49:47;;;;;;;4.50;2.65;;;;;;;8.44;35.72;102239.97;143752;575;46008;-87
2021/04/09 01:52:15;;;;;;;4.75;2.58;;;;;;;8.46;35.59;102246.09;143750;731;47010;-84
2021/04/09 01:54:45;;;;;;;5.62;2.60;;;;;;;8.45;35.74;102247.84;143751;578;46018;-90
2021/04/09 01:57:14;;;;;;;4.62;2.20;;;;;;;8.45;35.61;102250.47;143742;568;49020;-83
2021/04/09 01:59:42;;;;;;;4.07;2.20;;;;;;;8.44;35.56;102248.69;143751;599;46008;-86
2021/04/09 02:02:10;;;;;;;3.47;2.17;;;;;;;8.45;35.46;102249.63;143750;604;46029;-87
2021/04/09 02:04:39;;;;;;;3.92;2.25;;;;;;;8.44;35.67;102255.66;143749;600;49010;-87
2021/04/09 02:07:07;;;;;;;5.87;3.10;;;;;;;8.39;39.65;102263.50;143750;609;46010;-84
2021/04/09 02:09:34;;;;;;;6.12;3.35;;;;;;;8.29;40.69;102256.47;143749;674;47010;-82
2021/04/09 02:12:02;;;;;;;6.95;3.83;;;;;;;8.17;41.68;102262.47;143750;581;46028;-84
2021/04/09 02:14:31;;;;;;;8.57;4.03;;;;;;;8.01;41.74;102260.63;143751;577;48010;-85
2021/04/09 02:16:59;;;;;;;5.28;3.75;;;;;;;7.91;42.50;102265.81;143751;657;46021;-82
2021/04/09 02:19:27;;;;;;;7.47;4.18;;;;;;;7.76;43.04;102260.44;143748;608;47010;-85
2021/04/09 02:21:54;;;;;;;7.62;4.28;;;;;;;7.70;43.06;102266.47;143745;575;46019;-82
2021/04/09 02:24:22;;;;;;;8.48;4.32;;;;;;;7.63;44.17;102262.94;143751;564;46020;-86
2021/04/09 02:26:49;;;;;;;7.93;4.50;;;;;;;7.55;44.48;102258.50;143749;623;46010;-85
2021/04/09 02:29:17;;;;;;;8.65;4.50;;;;;;;7.47;45.24;102271.50;143745;660;48010;-85
2021/04/09 02:31:45;;;;;;;9.95;4.20;;;;;;;7.42;45.24;102273.19;143751;590;46012;-84
2021/04/09 02:34:12;;;;;;;8.90;4.47;;;;;;;7.40;44.68;102270.56;143751;623;46018;-85
2021/04/09 02:36:43;;;;;;;9.80;4.82;;;;;;;7.40;44.68;102275.78;143752;651;46020;-84
2021/04/09 02:39:15;;;;;;;8.35;4.82;;;;;;;7.42;44.64;102275.78;143750;569;47010;-84
2021/04/09 02:41:49;;;;;;;9.90;5.32;;;;;;;7.39;44.99;102267.94;143752;576;46027;-84
2021/04/09 02:44:17;;;;;;;7.47;4.53;;;;;;;7.35;44.60;102271.38;143752;570;48006;-85
2021/04/09 02:47:15;;;;;;;7.68;4.28;;;;;;;7.33;43.80;102280.94;143745;587;46010;-81
2021/04/09 02:49:47;;;;;;;6.10;4.17;;;;;;;7.28;44.33;102278.28;143752;623;46018;-83
2021/04/09 02:52:17;;;;;;;7.65;4.43;;;;;;;7.24;45.25;102279.97;143749;587;46027;-85
2021/04/09 02:54:58;;;;;;;7.40;4.50;;;;;;;7.19;45.08;102276.44;143751;593;46018;-83
2021/04/09 02:57:28;;;;;;;5.43;4.00;;;;;;;7.18;45.63;102276.44;143751;680;46010;-82
2021/04/09 02:59:57;;;;;;;7.55;4.20;;;;;;;7.16;45.65;102285.97;143752;562;46019;-80
2021/04/09 03:02:25;;;;;;;7.93;4.80;;;;;;;7.15;46.35;102286.81;143753;562;46012;-84
2021/04/09 03:04:53;;;;;;;9.38;4.68;;;;;;;7.14;46.62;102288.56;143752;586;46020;-83
2021/04/09 03:07:21;;;;;;;7.53;4.80;;;;;;;7.17;47.10;102286.00;143748;569;48023;-85
2021/04/09 03:09:48;;;;;;;7.72;4.90;;;;;;;7.17;47.07;102287.75;143750;610;46018;-85
2021/04/09 03:12:17;;;;;;;8.32;5.18;;;;;;;7.18;46.86;102287.75;143747;586;46012;-84
2021/04/09 03:14:51;;;;;;;14.00;9.23;;;;;;;7.18;47.32;102295.59;143749;584;47006;-85
2021/04/09 03:17:33;;;;;;;7.87;4.80;;;;;;;7.16;46.14;102294.69;143750;597;48020;-85
2021/04/09 03:20:00;;;;;;;12.60;6.97;;;;;;;7.14;46.82;102301.63;143750;579;46031;-84
2021/04/09 03:22:27;;;;;;;14.52;9.02;;;;;;;7.11;47.11;102294.63;143749;590;46010;-84
2021/04/09 03:24:54;;;;;;;10.25;5.90;;;;;;;7.09;46.91;102301.59;143754;585;46020;-85
2021/04/09 03:27:21;;;;;;;9.05;5.30;;;;;;;7.09;46.33;102304.22;143749;568;48020;-84
2021/04/09 03:29:48;;;;;;;9.35;5.60;;;;;;;7.10;46.80;102302.47;143749;619;47011;-84
2021/04/09 03:32:17;;;;;;;7.93;5.05;;;;;;;7.11;46.37;102307.69;143753;632;47010;-84
2021/04/09 03:34:44;;;;;;;8.10;4.60;;;;;;;7.09;46.92;102309.44;143752;572;48006;-85
2021/04/09 03:37:11;;;;;;;7.55;4.40;;;;;;;7.05;46.67;102306.75;143743;583;48023;-84
2021/04/09 03:39:39;;;;;;;6.53;4.37;;;;;;;7.04;46.21;102310.22;143751;580;46010;-83
2021/04/09 03:42:07;;;;;;;7.37;4.70;;;;;;;7.03;46.68;102311.09;143748;567;46018;-83
2021/04/09 03:44:34;;;;;;;10.88;4.87;;;;;;;6.99;46.72;102322.38;143753;568;48006;-83
2021/04/09 03:47:01;;;;;;;11.30;5.82;;;;;;;6.98;47.45;102305.78;143749;617;46018;-80
2021/04/09 03:49:28;;;;;;;15.05;6.03;;;;;;;6.93;48.05;102313.59;143751;562;47010;-81
2021/04/09 03:51:55;;;;;;;15.13;6.18;;;;;;;6.87;48.62;102317.84;143745;578;47010;-83
2021/04/09 03:54:23;;;;;;;11.85;5.75;;;;;;;6.86;49.03;102318.69;143753;590;48006;-84
2021/04/09 03:56:50;;;;;;;19.48;6.28;;;;;;;6.82;49.30;102320.41;143749;590;48022;-83
2021/04/09 03:59:17;;;;;;;12.35;5.90;;;;;;;6.82;50.13;102320.41;143750;579;47010;-84
2021/04/09 04:01:45;;;;;;;10.82;6.18;;;;;;;6.81;49.95;102323.88;143745;668;46010;-85
2021/04/09 04:04:12;;;;;;;16.85;5.90;;;;;;;6.77;49.79;102328.16;143752;585;48010;-84
2021/04/09 04:06:39;;;;;;;14.80;6.07;;;;;;;6.75;49.88;102339.44;143749;573;47010;-84
2021/04/09 04:09:06;;;;;;;14.70;6.43;;;;;;;6.71;50.13;102338.53;143749;598;47010;-84
2021/04/09 04:11:33;;;;;;;13.73;6.57;;;;;;;6.66;50.52;102344.56;143751;562;46010;-84
2021/04/09 04:14:01;;;;;;;10.05;5.97;;;;;;;6.62;50.50;102342.75;143751;587;48011;-84
2021/04/09 04:16:28;;;;;;;11.40;6.20;;;;;;;6.57;50.78;102347.88;143749;588;46020;-83
2021/04/09 04:18:55;;;;;;;11.18;5.65;;;;;;;6.53;51.08;102346.94;143750;621;48010;-85
2021/04/09 04:21:22;;;;;;;9.98;5.75;;;;;;;6.52;50.93;102337.41;143750;713;46018;-83
2021/04/09 04:23:50;;;;;;;9.38;6.53;;;;;;;6.49;49.31;102352.97;143752;635;49010;-83
2021/04/09 04:26:17;;;;;;;15.50;6.43;;;;;;;6.47;50.82;102346.88;143743;696;48020;-83
2021/04/09 04:28:44;;;;;;;11.75;6.30;;;;;;;6.45;51.08;102340.75;143752;677;46010;-83
2021/04/09 04:31:12;;;;;;;12.90;6.82;;;;;;;6.44;50.98;102346.84;143751;643;46018;-83
2021/04/09 04:33:39;;;;;;;11.57;6.20;;;;;;;6.44;50.77;102360.75;143751;723;48010;-83
2021/04/09 04:36:06;;;;;;;19.12;6.68;;;;;;;6.41;51.17;102357.22;143749;631;47020;-84
2021/04/09 04:38:33;;;;;;;20.17;8.18;;;;;;;6.40;50.53;102369.37;143754;604;46008;-83
2021/04/09 04:41:01;;;;;;;16.52;9.05;;;;;;;6.38;50.76;102365.91;143748;638;47010;-83
2021/04/09 04:43:28;;;;;;;17.12;7.97;;;;;;;6.35;51.55;102372.78;143755;568;46008;-84
2021/04/09 04:45:55;;;;;;;13.73;6.72;;;;;;;6.29;51.42;102367.44;143747;732;48022;-84
2021/04/09 04:48:22;;;;;;;11.85;6.82;;;;;;;6.28;49.87;102377.03;143752;568;46010;-83
2021/04/09 04:50:49;;;;;;;15.73;7.72;;;;;;;6.21;50.53;102377.78;143743;601;46010;-82
2021/04/09 04:53:16;;;;;;;13.48;7.82;;;;;;;6.16;51.20;102380.28;143754;739;46018;-81
2021/04/09 04:55:44;;;;;;;16.17;8.40;;;;;;;6.15;51.01;102382.87;143749;587;48020;-81
2021/04/09 04:58:11;;;;;;;15.68;8.13;;;;;;;6.14;50.35;102376.78;143750;605;47010;-81
2021/04/09 05:00:38;;;;;;;15.77;8.07;;;;;;;6.07;51.72;102381.03;143751;568;47010;-81
2021/04/09 05:03:06;;;;;;;13.70;7.43;;;;;;;6.00;52.72;102379.16;143753;602;48006;-80
2021/04/09 05:05:33;;;;;;;17.65;8.65;;;;;;;5.99;52.75;102377.41;143752;584;47022;-79
2021/04/09 05:08:00;;;;;;;14.18;8.55;;;;;;;5.99;52.14;102372.19;143751;616;47010;-80
2021/04/09 05:10:27;;;;;;;17.83;8.73;;;;;;;6.01;52.38;102380.03;143751;564;46010;-84
2021/04/09 05:12:54;;;;;;;16.58;8.73;;;;;;;5.99;55.27;102381.75;143752;604;47016;-80
2021/04/09 05:15:23;;;;;;;14.38;7.68;;;;;;;6.00;54.89;102379.16;143746;650;46023;-80
2021/04/09 05:17:50;;;;;;;15.32;7.93;;;;;;;6.07;54.72;102372.34;143753;587;46010;-80
2021/04/09 05:20:17;;;;;;;14.45;7.80;;;;;;;6.15;55.37;102377.66;143749;635;47010;-81
2021/04/09 05:22:44;;;;;;;17.08;7.75;;;;;;;6.19;54.44;102363.81;143753;584;46016;-79
2021/04/09 05:25:11;;;;;;;18.05;9.52;;;;;;;6.21;55.90;102378.66;143749;608;48020;-80
2021/04/09 05:27:39;;;;;;;20.52;8.77;;;;;;;6.24;55.91;102373.47;143754;606;46008;-79
2021/04/09 05:30:08;;;;;;;16.92;8.98;;;;;;;6.30;55.67;102372.72;143752;707;46012;-79
2021/04/09 05:32:36;;;;;;;17.12;8.75;;;;;;;6.35;54.43;102364.94;143754;574;48006;-79
2021/04/09 05:35:04;;;;;;;12.70;6.40;;;;;;;6.42;51.80;102377.25;143751;573;46020;-79
2021/04/09 05:37:31;;;;;;;11.15;6.18;;;;;;;6.52;50.05;102375.66;143754;567;46010;-79
2021/04/09 05:39:58;;;;;;;11.98;6.32;;;;;;;6.63;51.86;102383.63;143745;562;46010;-80
2021/04/09 05:42:25;;;;;;;14.75;8.20;;;;;;;6.72;54.30;102375.94;143746;666;49010;-80
2021/04/09 05:44:52;;;;;;;16.48;7.72;;;;;;;6.81;54.68;102381.31;143751;627;46021;-80
2021/04/09 05:47:20;;;;;;;14.57;7.72;;;;;;;6.89;53.30;102387.53;143751;564;47010;-80
2021/04/09 05:49:47;;;;;;;17.27;6.50;;;;;;;6.99;52.27;102388.53;143754;581;46032;-80
2021/04/09 05:52:14;;;;;;;10.88;5.90;;;;;;;7.07;51.43;102384.28;143752;631;49010;-80
2021/04/09 05:54:42;;;;;;;12.37;6.07;;;;;;;7.17;49.33;102390.50;143753;579;46010;-79
2021/04/09 05:57:09;;;;;;;8.30;4.47;;;;;;;7.29;46.78;102387.16;143752;582;46028;-80
2021/04/09 05:59:37;;;;;;;6.85;4.60;;;;;;;7.40;46.88;102400.38;143752;574;46012;-86
2021/04/09 06:02:04;;;;;;;9.30;5.00;;;;;;;7.48;47.15;102396.13;143753;591;46020;-81
2021/04/09 06:04:31;;;;;;;7.55;4.55;;;;;;;7.57;48.32;102397.94;143752;580;46010;-80
2021/04/09 06:06:58;;;;;;;10.48;4.85;;;;;;;7.63;46.50;102401.50;143753;745;46010;-81
2021/04/09 06:09:26;;;;;;;7.15;4.50;;;;;;;7.72;46.22;102411.22;143752;591;46010;-81
2021/04/09 06:12:03;;;;;;;5.43;3.53;;;;;;;7.81;44.22;102399.09;143755;598;46008;-80
2021/04/09 06:14:30;;;;;;;5.25;3.20;;;;;;;7.88;43.17;102407.00;143751;675;46010;-79
2021/04/09 06:16:58;;;;;;;7.20;3.60;;;;;;;7.99;42.57;102408.84;143752;573;46010;-83
2021/04/09 06:19:25;;;;;;;6.18;3.30;;;;;;;8.07;43.15;102412.44;143752;568;46010;-81
2021/04/09 06:21:52;;;;;;;6.22;3.50;;;;;;;8.13;42.46;102402.91;143753;608;47010;-82
2021/04/09 06:24:19;;;;;;;6.68;3.42;;;;;;;8.19;41.47;102404.69;143753;605;46010;-87
2021/04/09 06:26:47;;;;;;;4.95;3.40;;;;;;;8.25;42.18;102412.56;143753;570;46018;-82
2021/04/09 06:29:14;;;;;;;5.55;3.75;;;;;;;8.32;43.15;102407.41;143745;574;46010;-86
2021/04/09 06:31:41;;;;;;;5.22;3.67;;;;;;;8.39;42.43;102412.72;143754;573;47010;-86
2021/04/09 06:34:08;;;;;;;8.88;3.83;;;;;;;8.45;41.93;102397.06;143750;608;48020;-89
2021/04/09 06:36:35;;;;;;;8.95;5.35;;;;;;;8.52;41.33;102405.84;143755;624;46008;-82
2021/04/09 06:39:04;;;;;;;8.77;5.37;;;;;;;8.58;41.47;102405.03;143751;579;46030;-86
2021/04/09 06:41:31;;;;;;;6.15;3.50;;;;;;;8.66;40.63;102408.56;143752;596;48010;-88
2021/04/09 06:44:01;;;;;;;7.03;4.10;;;;;;;8.71;41.73;102401.62;143749;742;47021;-90
2021/04/09 06:46:28;;;;;;;6.15;3.30;;;;;;;8.78;40.89;102413.91;143750;611;46018;-85
2021/04/09 06:48:56;;;;;;;6.15;3.12;;;;;;;8.86;40.72;102413.94;143750;584;46011;-88
2021/04/09 06:51:24;;;;;;;6.35;3.35;;;;;;;8.95;40.56;102415.75;143753;700;48010;-91
2021/04/09 06:53:52;;;;;;;8.32;2.90;;;;;;;9.02;39.62;102424.50;143745;575;47022;-81
2021/04/09 06:56:22;;;;;;;7.15;3.15;;;;;;;9.09;38.94;102421.94;143751;578;46018;-85
2021/04/09 06:58:50;;;;;;;9.23;4.47;;;;;;;9.14;38.77;102428.09;143750;649;46019;-79
2021/04/09 07:01:20;;;;;;;3.95;2.70;;;;;;;9.18;37.76;102420.25;143755;643;46008;-87
2021/04/09 07:03:47;;;;;;;11.20;4.53;;;;;;;9.22;38.09;102425.50;143751;627;46010;-75
2021/04/09 07:06:14;;;;;;;5.93;2.90;;;;;;;9.28;37.59;102428.16;143751;648;47010;-90
2021/04/09 07:08:42;;;;;;;4.40;3.30;;;;;;;9.32;37.36;102431.66;143751;562;47012;-88
2021/04/09 07:11:10;;;;;;;6.68;3.80;;;;;;;9.38;36.92;102430.84;143753;633;46018;-85
2021/04/09 07:13:53;;;;;;;6.28;2.87;;;;;;;9.43;37.00;102435.22;143751;567;48021;-82
2021/04/09 07:16:22;;;;;;;5.78;2.85;;;;;;;9.48;37.00;102433.47;143754;608;46018;-86
2021/04/09 07:19:00;;;;;;;11.65;4.10;;;;;;;9.56;38.13;102430.03;143741;712;47010;-88
2021/04/09 07:21:31;;;;;;;4.72;2.90;;;;;;;9.60;37.33;102432.66;143753;581;46018;-85
2021/04/09 07:24:20;;;;;;;7.85;3.05;;;;;;;9.68;36.74;102447.53;143751;576;46022;-81
2021/04/09 07:26:52;;;;;;;4.97;2.50;;;;;;;9.69;35.01;102430.94;143752;593;46010;-86
2021/04/09 07:29:41;;;;;;;6.03;2.75;;;;;;;9.73;37.28;102427.44;143754;564;46010;-84
2021/04/09 07:32:28;;;;;;;5.60;2.70;;;;;;;9.76;37.56;102437.94;143753;593;46008;-88
2021/04/09 07:35:14;;;;;;;5.05;2.90;;;;;;;9.79;34.88;102435.34;143753;599;46011;-90
2021/04/09 07:37:56;;;;;;;6.50;3.50;;;;;;;9.83;32.96;102440.59;143753;611;46010;-87
2021/04/09 07:40:29;;;;;;;5.57;2.70;;;;;;;9.88;32.71;102442.34;143749;668;46018;-88
2021/04/09 07:42:57;;;;;;;8.25;3.00;;;;;;;9.94;32.78;102458.13;143755;667;46019;-93
2021/04/09 07:45:27;;;;;;;3.85;2.85;;;;;;;9.99;33.14;102444.13;143744;606;47020;-87
2021/04/09 07:48:01;;;;;;;5.35;3.00;;;;;;;10.08;34.73;102448.53;143750;599;46018;-84
2021/04/09 07:50:54;;;;;;;5.30;2.85;;;;;;;10.02;34.05;102453.78;143753;609;46010;-84
2021/04/09 07:53:40;;;;;;;4.47;2.75;;;;;;;10.12;33.24;102454.66;143753;568;48008;-86
2021/04/09 07:56:13;;;;;;;6.90;3.28;;;;;;;10.13;32.39;102452.03;143751;672;46020;-82
2021/04/09 07:58:42;;;;;;;7.25;2.50;;;;;;;10.14;30.89;102456.41;143751;660;46018;-85
2021/04/09 08:01:28;;;;;;;3.17;2.00;;;;;;;10.17;34.88;102458.19;143752;581;47008;-84
2021/04/09 08:03:56;;;;;;;4.93;2.62;;;;;;;10.18;31.48;102464.28;143753;609;46019;-85
2021/04/09 08:06:24;;;;;;;2.62;1.75;;;;;;;10.21;29.12;102469.53;143752;607;46021;-83
2021/04/09 08:09:00;;;;;;;5.87;2.45;;;;;;;10.28;31.50;102463.44;143751;564;48010;-81
2021/04/09 08:11:32;;;;;;;5.40;1.92;;;;;;;10.33;31.52;102478.31;143744;595;46018;-84
2021/04/09 08:14:07;;;;;;;4.37;1.55;;;;;;;10.39;29.77;102466.09;143751;618;48006;-86
2021/04/09 08:16:37;;;;;;;4.18;1.83;;;;;;;10.43;29.74;102459.97;143752;581;48020;-86
2021/04/09 08:19:15;;;;;;;2.35;1.75;;;;;;;10.48;29.69;102459.12;143751;593;47010;-83
2021/04/09 08:21:45;;;;;;;2.95;1.85;;;;;;;10.56;28.91;102469.59;143750;576;46030;-84
2021/04/09 08:24:13;;;;;;;2.55;1.58;;;;;;;10.65;28.84;102466.12;143754;587;48010;-80
2021/04/09 08:26:40;;;;;;;4.72;1.70;;;;;;;10.68;27.47;102454.72;143751;572;47010;-78
2021/04/09 08:29:09;;;;;;;4.97;1.80;;;;;;;10.70;27.58;102447.72;143750;568;48010;-81
2021/04/09 08:31:37;;;;;;;8.85;1.85;;;;;;;10.73;27.61;102455.56;143746;619;46018;-79
2021/04/09 08:34:07;;;;;;;2.90;1.70;;;;;;;10.75;26.45;102461.72;143751;605;47010;-84
2021/04/09 08:36:37;;;;;;;4.72;1.90;;;;;;;10.78;27.19;102467.84;143745;650;46010;-78
2021/04/09 08:39:08;;;;;;;3.58;1.95;;;;;;;10.83;25.99;102470.47;143749;607;46018;-82
2021/04/09 08:41:40;;;;;;;8.48;4.00;;;;;;;10.78;26.63;102459.09;143753;568;46018;-80
2021/04/09 08:44:07;;;;;;;6.20;2.53;;;;;;;10.86;26.08;102462.59;143753;638;49010;-82
2021/04/09 08:46:35;;;;;;;8.15;3.50;;;;;;;10.90;25.85;102479.22;143750;563;48020;-79
2021/04/09 08:49:03;;;;;;;3.92;2.47;;;;;;;10.91;25.54;102470.47;143748;669;46019;-84
2021/04/09 08:51:31;;;;;;;2.37;1.80;;;;;;;10.93;25.21;102469.56;143751;655;46027;-80
2021/04/09 08:54:29;;;;;;;5.37;2.67;;;;;;;10.98;26.03;102480.97;143753;581;46008;-81
2021/04/09 08:56:58;;;;;;;2.97;1.67;;;;;;;11.03;25.46;102474.81;143750;640;46020;-81
2021/04/09 09:00:18;;;;;;;4.78;1.90;;;;;;;11.10;26.34;102468.66;143747;600;46018;-87
2021/04/09 09:02:54;;;;;;;2.87;1.52;;;;;;;11.17;28.15;102470.41;143740;568;47010;-77
2021/04/09 09:05:23;;;;;;;4.00;2.22;;;;;;;11.22;25.07;102479.19;143752;633;46019;-82
2021/04/09 09:08:03;;;;;;;7.97;4.35;;;;;;;11.27;26.56;102473.91;143748;725;48022;-82
2021/04/09 09:10:50;;;;;;;3.75;1.90;;;;;;;11.34;25.98;102458.09;143750;669;46018;-81
2021/04/09 09:13:24;;;;;;;7.12;2.70;;;;;;;11.41;27.10;102466.81;143750;620;46010;-85
2021/04/09 09:15:56;;;;;;;5.45;2.17;;;;;;;11.45;26.30;102467.69;143749;631;46018;-82
2021/04/09 09:18:53;;;;;;;3.47;1.80;;;;;;;11.49;25.40;102465.03;143748;582;46010;-81
2021/04/09 09:21:25;;;;;;;3.75;2.40;;;;;;;11.55;25.59;102466.78;143751;625;46010;-80
2021/04/09 09:23:57;;;;;;;2.15;1.80;;;;;;;11.57;25.80;102472.03;143749;685;46028;-76
2021/04/09 09:26:50;;;;;;;6.47;3.42;;;;;;;11.48;24.16;102429.13;143751;674;48010;-78
2021/04/09 09:29:27;;;;;;;6.72;3.72;;;;;;;11.65;23.35;102465.84;143746;585;46010;-80
2021/04/09 09:32:09;;;;;;;9.27;2.40;;;;;;;11.66;24.89;102467.63;143750;680;46018;-80
2021/04/09 09:34:45;;;;;;;7.18;3.22;;;;;;;11.67;24.80;102464.09;143750;632;46010;-81
2021/04/09 09:37:34;;;;;;;4.07;2.72;;;;;;;11.74;26.02;102467.59;143753;562;46018;-87
2021/04/09 09:40:05;;;;;;;3.75;2.15;;;;;;;11.77;23.03;102459.66;143749;664;46010;-78
2021/04/09 09:42:43;;;;;;;4.32;2.67;;;;;;;11.83;25.15;102456.13;143747;675;46019;-81
2021/04/09 09:45:33;;;;;;;7.45;2.70;;;;;;;11.79;23.78;102454.38;143751;575;46010;-79
2021/04/09 09:48:19;;;;;;;6.12;2.45;;;;;;;11.97;24.32;102463.97;143749;571;50010;-78
2021/04/09 09:50:46;;;;;;;3.67;2.37;;;;;;;11.98;21.30;102455.19;143747;568;47010;-79
2021/04/09 09:53:13;;;;;;;4.82;2.45;;;;;;;12.04;22.58;102459.53;143750;738;47010;-79
2021/04/09 09:55:46;;;;;;;6.07;3.00;;;;;;;12.08;22.74;102448.09;143741;584;47010;-78
2021/04/09 09:58:19;;;;;;;5.70;2.97;;;;;;;12.11;22.59;102453.34;143749;650;49010;-80
2021/04/09 10:01:02;;;;;;;3.70;2.50;;;;;;;12.17;24.37;102461.22;143745;563;49020;-79
2021/04/09 10:03:47;;;;;;;5.60;2.97;;;;;;;12.23;26.14;102439.22;143750;575;46018;-82
2021/04/09 10:06:14;;;;;;;4.28;2.22;;;;;;;12.16;23.93;102428.72;143750;641;47010;-80
2021/04/09 10:08:44;;;;;;;4.70;2.60;;;;;;;12.33;25.15;102439.16;143750;635;49010;-81
2021/04/09 10:11:21;;;;;;;7.53;1.90;;;;;;;12.38;24.16;102435.59;143747;592;48020;-77
2021/04/09 10:13:50;;;;;;;3.90;2.12;;;;;;;12.39;23.42;102443.50;143751;584;46008;-79
2021/04/09 10:16:25;;;;;;;5.70;2.87;;;;;;;12.43;24.51;102439.09;143745;576;47010;-83
2021/04/09 10:18:57;;;;;;;6.03;3.03;;;;;;;12.57;23.12;102441.59;143750;577;49010;-84
2021/04/09 10:21:29;;;;;;;6.93;2.00;;;;;;;12.66;22.82;102431.84;143749;573;46010;-79
2021/04/09 10:24:35;;;;;;;3.45;1.87;;;;;;;12.74;25.52;102434.41;143748;587;47010;-80
2021/04/09 10:27:02;;;;;;;6.18;2.83;;;;;;;12.79;23.35;102437.84;143753;572;46010;-81
2021/04/09 10:29:35;;;;;;;4.93;2.58;;;;;;;12.84;23.81;102451.88;143751;581;46016;-82
2021/04/09 10:32:04;;;;;;;4.97;3.03;;;;;;;12.92;23.32;102438.62;143748;594;46018;-80
2021/04/09 10:34:35;;;;;;;3.95;2.12;;;;;;;12.99;22.78;102435.03;143750;562;47010;-81
2021/04/09 10:37:04;;;;;;;4.35;2.35;;;;;;;13.13;25.11;102428.72;143747;586;46018;-81
2021/04/09 10:39:32;;;;;;;5.60;3.05;;;;;;;13.26;24.67;102438.25;143752;567;47010;-81
2021/04/09 10:42:03;;;;;;;5.25;2.05;;;;;;;13.36;23.17;102434.63;143748;562;46010;-83
2021/04/09 10:44:33;;;;;;;3.92;2.05;;;;;;;13.48;24.15;102425.69;143750;594;47010;-82
2021/04/09 10:47:10;;;;;;;2.87;2.15;;;;;;;13.56;24.86;102427.34;143746;563;47010;-81
2021/04/09 10:49:39;;;;;;;3.55;2.00;;;;;;;13.52;22.98;102423.91;143753;660;46011;-80
2021/04/09 10:52:14;;;;;;;3.80;1.95;;;;;;;13.49;23.47;102423.91;143744;583;47010;-81
2021/04/09 10:54:44;;;;;;;2.83;2.15;;;;;;;13.48;23.99;102423.06;143749;615;46018;-81
2021/04/09 10:57:16;;;;;;;4.50;1.87;;;;;;;13.54;24.07;102420.34;143750;630;46010;-84
2021/04/09 10:59:45;;;;;;;4.80;1.90;;;;;;;13.60;22.87;102416.75;143748;604;49006;-81
2021/04/09 11:02:24;;;;;;;3.87;1.60;;;;;;;13.62;23.43;102417.59;143744;588;48020;-79
2021/04/09 11:04:57;;;;;;;2.78;1.60;;;;;;;13.57;23.79;102416.75;143750;587;47010;-83
2021/04/09 11:08:02;;;;;;;3.42;1.98;;;;;;;13.66;26.80;102415.78;143744;581;47010;-83
2021/04/09 11:10:36;;;;;;;6.35;2.92;;;;;;;13.77;22.58;102405.09;143754;568;46019;-78
2021/04/09 11:13:04;;;;;;;9.63;3.67;;;;;;;13.84;22.23;102417.28;143742;602;48023;-85
2021/04/09 11:15:41;;;;;;;2.67;1.75;;;;;;;13.93;23.34;102416.25;143751;563;47010;-88
2021/04/09 11:18:09;;;;;;;2.75;1.83;;;;;;;14.01;22.21;102401.19;143745;564;47010;-89
2021/04/09 11:20:45;;;;;;;4.10;2.80;;;;;;;14.14;25.18;102405.38;143754;586;46026;-82
2021/04/09 11:23:14;;;;;;;4.78;3.53;;;;;;;14.25;22.96;102394.62;143750;572;46010;-81
2021/04/09 11:25:47;;;;;;;4.28;1.75;;;;;;;14.34;23.17;102407.69;143750;570;47010;-92
2021/04/09 11:28:30;;;;;;;3.60;3.30;;;;;;;14.46;24.71;102400.44;143752;607;46010;-86
2021/04/09 11:31:05;;;;;;;7.95;2.20;;;;;;;14.57;23.58;102403.78;143754;602;46008;-81
2021/04/09 11:33:39;;;;;;;2.97;1.67;;;;;;;14.51;22.00;102406.53;143749;573;47010;-84
2021/04/09 11:36:49;;;;;;;2.95;1.90;;;;;;;14.54;25.07;102393.25;143751;589;46010;-85
2021/04/09 11:39:20;;;;;;;2.90;2.17;;;;;;;14.67;25.62;102392.16;143741;587;46030;-83
2021/04/09 11:41:59;;;;;;;6.25;2.17;;;;;;;14.86;23.73;102397.13;143750;575;48010;-84
2021/04/09 11:44:50;;;;;;;3.55;1.85;;;;;;;14.98;25.24;102396.88;143748;563;47010;-81
2021/04/09 11:47:27;;;;;;;5.78;2.90;;;;;;;14.97;21.70;102387.19;143748;606;46018;-84
2021/04/09 11:50:25;;;;;;;3.25;2.10;;;;;;;15.00;23.82;102388.91;143751;633;46010;-86
2021/04/09 11:53:01;;;;;;;6.93;3.75;;;;;;;14.97;23.82;102389.84;143751;597;48017;-89